createdAt,value
2023-01-06T00:00:12.399Z,4.77
2023-01-06T00:03:15.349Z,5.50
2023-01-06T00:06:18.749Z,5.37
2023-01-06T00:09:21.691Z,5.87
2023-01-06T00:12:26.830Z,6.57
2023-01-06T00:15:30.421Z,5.77
2023-01-06T00:18:33.382Z,8.13
2023-01-06T00:21:36.345Z,6.10
2023-01-06T00:24:39.286Z,8.40
2023-01-06T00:27:43.565Z,6.67
2023-01-06T00:30:46.681Z,6.23
2023-01-06T00:33:49.647Z,9.03
2023-01-06T00:36:52.595Z,13.37
2023-01-06T00:39:55.579Z,11.00
2023-01-06T00:42:59.897Z,10.47
2023-01-06T00:46:03.105Z,11.53
2023-01-06T00:49:07.744Z,6.53
2023-01-06T00:52:10.949Z,9.17
2023-01-06T00:55:13.828Z,6.50
2023-01-06T00:58:18.053Z,7.00
2023-01-06T01:01:21.071Z,6.67
2023-01-06T01:04:25.251Z,6.80
2023-01-06T01:07:28.275Z,12.47
2023-01-06T01:10:31.235Z,6.43
2023-01-06T01:13:35.984Z,6.13
2023-01-06T01:16:39.290Z,6.00
2023-01-06T01:19:42.469Z,11.43
2023-01-06T01:22:45.532Z,8.07
2023-01-06T01:25:48.461Z,6.00
2023-01-06T01:28:52.816Z,9.63
2023-01-06T01:31:56.023Z,8.27
2023-01-06T01:34:58.909Z,5.80
2023-01-06T01:38:01.808Z,6.13
2023-01-06T01:41:05.142Z,7.47
2023-01-06T01:44:41.522Z,5.07
2023-01-06T01:47:49.487Z,6.87
2023-01-06T01:50:56.530Z,5.03
2023-01-06T01:54:02.100Z,4.80
2023-01-06T01:57:09.723Z,5.70
2023-01-06T02:00:13.291Z,6.20
2023-01-06T02:03:17.785Z,6.67
2023-01-06T02:06:22.769Z,6.67
2023-01-06T02:09:29.642Z,6.00
2023-01-06T02:12:32.840Z,5.33
2023-01-06T02:15:35.914Z,6.93
2023-01-06T02:18:54.848Z,5.30
2023-01-06T02:22:17.080Z,5.47
2023-01-06T02:25:48.779Z,4.80
2023-01-06T02:29:20.459Z,5.37
2023-01-06T02:32:37.488Z,6.00
2023-01-06T02:35:58.482Z,4.70
2023-01-06T02:39:14.783Z,4.40
2023-01-06T02:42:21.995Z,7.33
2023-01-06T02:45:36.152Z,5.00
2023-01-06T02:48:51.422Z,4.30
2023-01-06T02:51:59.101Z,4.50
2023-01-06T02:55:06.331Z,3.87
2023-01-06T02:58:15.970Z,4.67
2023-01-06T03:01:24.813Z,5.60
2023-01-06T03:04:34.498Z,4.40
2023-01-06T03:07:39.692Z,4.13
2023-01-06T03:10:45.323Z,4.10
2023-01-06T03:13:53.815Z,4.10
2023-01-06T03:16:57.065Z,4.13
2023-01-06T03:20:01.505Z,3.97
2023-01-06T03:23:04.506Z,3.63
2023-01-06T03:26:07.809Z,4.53
2023-01-06T03:29:14.387Z,4.37
2023-01-06T03:32:23.714Z,4.73
2023-01-06T03:35:48.977Z,3.93
2023-01-06T03:39:03.135Z,4.13
2023-01-06T03:42:37.513Z,4.27
2023-01-06T03:45:50.714Z,3.63
2023-01-06T03:49:06.587Z,3.90
2023-01-06T03:52:19.206Z,3.77
2023-01-06T03:55:26.834Z,4.23
2023-01-06T03:58:31.481Z,3.97
2023-01-06T04:01:35.222Z,4.10
2023-01-06T04:04:38.650Z,3.70
2023-01-06T04:07:43.828Z,3.50
2023-01-06T04:10:46.754Z,3.70
2023-01-06T04:13:48.706Z,4.03
2023-01-06T04:16:51.717Z,3.87
2023-01-06T04:19:54.624Z,3.47
2023-01-06T04:22:59.219Z,4.03
2023-01-06T04:26:02.172Z,3.73
2023-01-06T04:29:05.164Z,3.93
2023-01-06T04:32:08.052Z,3.77
2023-01-06T04:35:11.746Z,3.83
2023-01-06T04:38:16.063Z,3.93
2023-01-06T04:41:19.137Z,3.63
2023-01-06T04:44:22.121Z,3.73
2023-01-06T04:47:25.045Z,4.03
2023-01-06T04:50:28.085Z,3.53
2023-01-06T04:53:35.194Z,3.60
2023-01-06T04:56:38.225Z,4.20
2023-01-06T04:59:41.151Z,4.97
2023-01-06T05:02:44.216Z,3.73
2023-01-06T05:05:47.133Z,3.93
2023-01-06T05:08:51.585Z,3.70
2023-01-06T05:11:54.553Z,3.73
2023-01-06T05:14:57.497Z,4.03
2023-01-06T05:18:00.519Z,3.90
2023-01-06T05:21:04.027Z,4.07
2023-01-06T05:24:10.971Z,3.90
2023-01-06T05:27:14.512Z,4.13
2023-01-06T05:30:17.503Z,4.67
2023-01-06T05:33:20.420Z,5.57
2023-01-06T05:36:24.768Z,4.43
2023-01-06T05:39:29.091Z,4.10
2023-01-06T05:42:32.027Z,4.80
2023-01-06T05:45:34.982Z,5.50
2023-01-06T05:48:39.067Z,4.00
2023-01-06T05:51:42.053Z,4.30
2023-01-06T05:54:46.859Z,4.17
2023-01-06T05:57:49.783Z,4.10
2023-01-06T06:00:52.700Z,4.43
2023-01-06T06:03:56.659Z,4.40
2023-01-06T06:06:59.706Z,5.60
2023-01-06T06:10:04.398Z,4.70
2023-01-06T06:13:07.386Z,5.43
2023-01-06T06:16:12.816Z,5.67
2023-01-06T06:19:16.021Z,4.67
2023-01-06T06:22:19.242Z,5.17
2023-01-06T06:25:23.516Z,5.13
2023-01-06T06:28:26.422Z,4.60
2023-01-06T06:31:30.738Z,5.10
2023-01-06T06:34:33.702Z,4.40
2023-01-06T06:37:36.741Z,5.20
2023-01-06T06:40:44.941Z,5.40
2023-01-06T06:43:49.438Z,5.80
2023-01-06T06:46:52.325Z,5.27
2023-01-06T06:49:55.306Z,5.80
2023-01-06T06:52:58.247Z,6.27
2023-01-06T06:56:02.607Z,7.97
2023-01-06T06:59:05.865Z,6.00
2023-01-06T07:02:09.887Z,7.47
2023-01-06T07:05:12.932Z,9.10
2023-01-06T07:08:16.205Z,7.23
2023-01-06T07:11:21.097Z,8.67
2023-01-06T07:14:24.096Z,6.63
2023-01-06T07:17:28.027Z,7.87
2023-01-06T07:20:31.792Z,9.30
2023-01-06T07:23:35.005Z,10.33
2023-01-06T07:26:39.431Z,7.70
2023-01-06T07:29:42.521Z,9.73
2023-01-06T07:32:45.496Z,9.87
2023-01-06T07:35:48.631Z,8.07
2023-01-06T07:38:51.545Z,7.83
2023-01-06T07:41:55.866Z,15.10
2023-01-06T07:44:58.817Z,9.33
2023-01-06T07:48:02.198Z,11.07
2023-01-06T07:51:05.353Z,10.37
2023-01-06T07:54:08.666Z,13.57
2023-01-06T07:57:13.039Z,8.70
2023-01-06T08:00:16.818Z,8.70
2023-01-06T08:03:19.900Z,11.47
2023-01-06T08:06:22.868Z,10.13
2023-01-06T08:09:25.833Z,9.77
2023-01-06T08:12:30.092Z,8.67
2023-01-06T08:15:33.092Z,10.83
2023-01-06T08:18:36.623Z,10.47
2023-01-06T08:21:39.592Z,10.77
2023-01-06T08:24:42.567Z,12.60
2023-01-06T08:27:46.971Z,11.53
2023-01-06T08:30:49.927Z,15.77
2023-01-06T08:33:53.623Z,17.60
2023-01-06T08:36:56.644Z,14.33
2023-01-06T08:39:59.544Z,15.07
2023-01-06T08:43:03.868Z,11.60
2023-01-06T08:46:09.756Z,12.10
2023-01-06T08:49:12.812Z,11.63
2023-01-06T08:52:15.745Z,13.87
2023-01-06T08:55:18.720Z,14.43
2023-01-06T08:58:23.064Z,15.97
2023-01-06T09:01:28.065Z,13.30
2023-01-06T09:04:30.995Z,15.47
2023-01-06T09:07:33.972Z,18.33
2023-01-06T09:10:38.753Z,16.00
2023-01-06T09:13:43.083Z,18.77
2023-01-06T09:16:47.832Z,20.37
2023-01-06T09:19:50.738Z,18.10
2023-01-06T09:22:53.632Z,18.27
2023-01-06T09:25:56.923Z,15.10
2023-01-06T09:29:01.223Z,18.50
2023-01-06T09:32:04.343Z,16.23
2023-01-06T09:35:08.516Z,16.03
2023-01-06T09:38:11.611Z,19.87
2023-01-06T09:41:34.072Z,19.97
2023-01-06T09:44:47.360Z,16.97
2023-01-06T09:47:55.848Z,17.33
2023-01-06T09:51:04.549Z,16.17
2023-01-06T09:54:14.963Z,16.93
2023-01-06T09:57:23.053Z,16.13
2023-01-06T10:00:36.175Z,23.80
2023-01-06T10:03:39.382Z,25.27
2023-01-06T10:06:45.609Z,20.87
2023-01-06T10:09:58.515Z,17.23
2023-01-06T10:13:13.390Z,19.13
2023-01-06T10:16:29.460Z,18.23
2023-01-06T10:19:48.393Z,16.43
2023-01-06T10:22:59.117Z,17.07
2023-01-06T10:26:12.210Z,20.00
2023-01-06T10:29:18.556Z,19.87
2023-01-06T10:32:26.078Z,22.10
2023-01-06T10:35:29.388Z,21.00
2023-01-06T10:38:36.287Z,19.73
2023-01-06T10:41:47.795Z,19.57
2023-01-06T10:44:50.756Z,18.60
2023-01-06T10:47:56.060Z,16.47
2023-01-06T10:50:59.190Z,17.70
2023-01-06T10:54:04.671Z,19.47
2023-01-06T10:57:13.178Z,20.00
2023-01-06T11:00:20.213Z,18.80
2023-01-06T11:03:33.229Z,15.40
2023-01-06T11:06:39.789Z,18.07
2023-01-06T11:09:44.756Z,15.50
2023-01-06T11:12:47.761Z,16.57
2023-01-06T11:15:51.163Z,15.87
2023-01-06T11:18:58.554Z,20.90
2023-01-06T11:22:01.574Z,17.23
2023-01-06T11:25:22.751Z,15.63
2023-01-06T11:28:26.174Z,15.20
2023-01-06T11:31:29.697Z,15.10
2023-01-06T11:34:34.813Z,15.17
2023-01-06T11:37:40.635Z,13.67
2023-01-06T11:40:45.532Z,13.60
2023-01-06T11:43:50.499Z,13.30
2023-01-06T11:47:00.976Z,13.00
2023-01-06T11:50:06.262Z,13.10
2023-01-06T11:53:18.445Z,12.03
2023-01-06T11:56:21.362Z,12.77
2023-01-06T11:59:26.751Z,12.57
2023-01-06T12:02:36.143Z,11.27
2023-01-06T12:05:47.937Z,13.27
2023-01-06T12:08:56.957Z,11.40
2023-01-06T12:12:03.979Z,11.23
2023-01-06T12:15:14.074Z,11.40
2023-01-06T12:18:22.995Z,10.70
2023-01-06T12:21:31.492Z,10.73
2023-01-06T12:24:35.506Z,12.03
2023-01-06T12:27:43.510Z,11.00
2023-01-06T12:30:53.884Z,10.27
2023-01-06T12:34:01.882Z,10.97
2023-01-06T12:37:16.911Z,9.63
2023-01-06T12:40:27.746Z,9.30
2023-01-06T12:43:34.346Z,8.60
2023-01-06T12:46:41.223Z,9.07
2023-01-06T12:49:49.177Z,8.83
2023-01-06T12:52:59.864Z,8.57
2023-01-06T12:56:22.873Z,7.83
2023-01-06T12:59:35.156Z,7.80
2023-01-06T13:02:54.763Z,7.87
2023-01-06T13:06:14.546Z,7.17
2023-01-06T13:09:31.542Z,6.80
2023-01-06T13:12:53.524Z,7.13
2023-01-06T13:16:01.594Z,6.73
2023-01-06T13:19:15.301Z,6.87
2023-01-06T13:22:24.385Z,6.27
2023-01-06T13:25:58.185Z,5.73
2023-01-06T13:29:09.254Z,5.17
2023-01-06T13:32:32.609Z,5.03
2023-01-06T13:36:03.029Z,5.47
2023-01-06T13:39:08.447Z,4.83
2023-01-06T13:42:16.732Z,4.63
2023-01-06T13:45:23.944Z,4.20
2023-01-06T13:48:30.225Z,4.00
2023-01-06T13:51:35.714Z,4.30
2023-01-06T13:55:06.261Z,4.33
2023-01-06T13:58:45.285Z,3.53
2023-01-06T14:01:50.069Z,3.77
2023-01-06T14:04:53.032Z,3.30
2023-01-06T14:07:59.699Z,3.67
2023-01-06T14:11:08.125Z,3.57
2023-01-06T14:14:27.052Z,3.03
2023-01-06T14:17:38.676Z,3.33
2023-01-06T14:20:41.577Z,3.40
2023-01-06T14:23:53.824Z,2.70
2023-01-06T14:27:01.085Z,3.20
2023-01-06T14:30:19.548Z,3.00
2023-01-06T14:33:35.550Z,2.70
2023-01-06T14:36:38.660Z,2.80
2023-01-06T14:39:47.594Z,3.10
2023-01-06T14:42:52.417Z,2.90
2023-01-06T14:45:55.935Z,5.60
2023-01-06T14:49:02.657Z,3.50
2023-01-06T14:52:11.947Z,2.90
2023-01-06T14:55:18.697Z,3.30
2023-01-06T14:58:32.129Z,2.90
2023-01-06T15:01:37.025Z,3.60
2023-01-06T15:04:43.366Z,4.70
2023-01-06T15:07:57.761Z,3.43
2023-01-06T15:11:14.095Z,3.20
2023-01-06T15:14:27.262Z,2.80
2023-01-06T15:17:30.315Z,3.17
2023-01-06T15:20:40.071Z,3.07
2023-01-06T15:23:47.355Z,3.40
2023-01-06T15:26:51.115Z,3.20
2023-01-06T15:29:56.245Z,3.60
2023-01-06T15:33:00.082Z,3.70
2023-01-06T15:36:05.170Z,4.00
2023-01-06T15:39:11.097Z,3.67
2023-01-06T15:42:16.141Z,3.77
2023-01-06T15:45:28.456Z,3.20
2023-01-06T15:48:33.566Z,3.70
2023-01-06T15:51:37.922Z,3.67
2023-01-06T15:54:46.559Z,3.40
2023-01-06T15:57:55.316Z,3.70
2023-01-06T16:01:01.453Z,5.23
2023-01-06T16:04:04.438Z,3.80
2023-01-06T16:07:34.512Z,3.60
2023-01-06T16:10:39.712Z,4.00
2023-01-06T16:13:43.653Z,3.83
2023-01-06T16:16:46.628Z,4.00
2023-01-06T16:19:52.200Z,3.53
2023-01-06T16:22:57.378Z,3.43
2023-01-06T16:26:10.039Z,4.00
2023-01-06T16:29:27.004Z,4.13
2023-01-06T16:32:38.347Z,4.57
2023-01-06T16:35:41.335Z,4.13
2023-01-06T16:38:46.363Z,4.17
2023-01-06T16:42:38.864Z,4.30
2023-01-06T16:45:44.218Z,4.23
2023-01-06T16:48:47.560Z,4.40
2023-01-06T16:51:51.085Z,4.10
2023-01-06T16:54:56.459Z,4.47
2023-01-06T16:58:00.956Z,4.70
2023-01-06T17:01:13.707Z,4.90
2023-01-06T17:04:17.279Z,4.40
2023-01-06T17:07:20.437Z,4.43
2023-01-06T17:10:25.423Z,4.67
2023-01-06T17:13:35.850Z,4.47
2023-01-06T17:16:42.341Z,4.30
2023-01-06T17:19:45.325Z,6.10
2023-01-06T17:22:50.409Z,4.53
2023-01-06T17:26:01.708Z,4.80
2023-01-06T17:29:13.693Z,4.90
2023-01-06T17:32:20.638Z,4.50
2023-01-06T17:35:28.208Z,4.57
2023-01-06T17:38:31.468Z,4.53
2023-01-06T17:41:35.813Z,4.50
2023-01-06T17:44:41.228Z,4.60
2023-01-06T17:47:47.234Z,4.73
2023-01-06T17:50:52.195Z,4.50
2023-01-06T17:54:24.290Z,4.80
2023-01-06T17:57:28.635Z,5.13
2023-01-06T18:00:34.878Z,5.00
2023-01-06T18:03:41.845Z,5.90
2023-01-06T18:06:52.551Z,5.50
2023-01-06T18:09:55.638Z,5.50
2023-01-06T18:13:10.785Z,5.40
2023-01-06T18:16:31.144Z,5.47
2023-01-06T18:19:36.214Z,5.00
2023-01-06T18:22:40.518Z,6.43
2023-01-06T18:25:43.476Z,5.57
2023-01-06T18:28:47.745Z,5.07
2023-01-06T18:31:52.830Z,5.90
2023-01-06T18:34:57.471Z,4.97
2023-01-06T18:38:02.343Z,6.07
2023-01-06T18:41:10.648Z,6.23
2023-01-06T18:44:19.401Z,5.60
2023-01-06T18:47:24.511Z,5.60
2023-01-06T18:50:31.695Z,5.97
2023-01-06T18:53:41.214Z,6.17
2023-01-06T18:56:44.160Z,5.87
2023-01-06T18:59:48.431Z,6.30
2023-01-06T19:02:52.640Z,9.07
2023-01-06T19:06:18.814Z,6.33
2023-01-06T19:09:30.436Z,6.03
2023-01-06T19:12:35.996Z,5.73
2023-01-06T19:15:40.399Z,6.73
2023-01-06T19:18:43.312Z,6.00
2023-01-06T19:21:46.542Z,6.67
2023-01-06T19:25:04.201Z,6.83
2023-01-06T19:28:13.781Z,7.27
2023-01-06T19:31:23.099Z,7.03
2023-01-06T19:34:27.123Z,6.90
2023-01-06T19:37:30.793Z,6.83
2023-01-06T19:40:42.356Z,6.90
2023-01-06T19:43:45.385Z,8.00
2023-01-06T19:46:49.979Z,7.33
2023-01-06T19:49:58.561Z,6.83
2023-01-06T19:53:01.629Z,7.07
2023-01-06T19:56:19.091Z,6.60
2023-01-06T19:59:25.829Z,6.83
2023-01-06T20:02:32.763Z,7.07
2023-01-06T20:05:36.499Z,6.70
2023-01-06T20:08:41.135Z,11.53
2023-01-06T20:11:44.163Z,7.97
2023-01-06T20:14:47.169Z,7.47
2023-01-06T20:17:51.449Z,7.37
2023-01-06T20:20:54.403Z,7.40
2023-01-06T20:23:58.452Z,8.00
2023-01-06T20:27:01.396Z,7.90
2023-01-06T20:30:04.957Z,7.47
2023-01-06T20:33:09.246Z,8.17
2023-01-06T20:36:16.921Z,8.50
2023-01-06T20:39:19.980Z,7.80
2023-01-06T20:42:22.941Z,7.53
2023-01-06T20:45:25.911Z,7.90
2023-01-06T20:48:30.216Z,7.70
2023-01-06T20:51:33.110Z,8.97
2023-01-06T20:54:36.031Z,8.20
2023-01-06T20:57:38.917Z,8.87
2023-01-06T21:00:41.896Z,8.30
2023-01-06T21:03:46.228Z,8.87
2023-01-06T21:06:49.293Z,9.13
2023-01-06T21:09:52.373Z,9.90
2023-01-06T21:12:55.683Z,9.43
2023-01-06T21:15:58.605Z,10.13
2023-01-06T21:19:02.893Z,10.60
2023-01-06T21:22:05.860Z,11.27
2023-01-06T21:25:09.456Z,9.93
2023-01-06T21:28:12.392Z,10.40
2023-01-06T21:31:15.488Z,10.00
2023-01-06T21:34:19.855Z,9.77
2023-01-06T21:37:22.832Z,10.87
2023-01-06T21:40:25.845Z,10.97
2023-01-06T21:43:27.777Z,10.37
2023-01-06T21:46:32.071Z,10.70
2023-01-06T21:49:36.620Z,9.37
2023-01-06T21:52:39.701Z,10.67
2023-01-06T21:55:42.712Z,10.53
2023-01-06T21:58:45.620Z,11.80
2023-01-06T22:01:48.645Z,11.80
2023-01-06T22:04:53.141Z,10.00
2023-01-06T22:07:56.187Z,11.13
2023-01-06T22:10:59.639Z,10.03
2023-01-06T22:14:02.803Z,10.13
2023-01-06T22:17:05.965Z,10.83
2023-01-06T22:20:13.267Z,10.80
2023-01-06T22:23:20.104Z,10.87
2023-01-06T22:26:23.046Z,11.43
2023-01-06T22:29:26.081Z,10.97
2023-01-06T22:32:29.170Z,11.20
2023-01-06T22:35:33.483Z,11.60
2023-01-06T22:38:37.007Z,11.47
2023-01-06T22:41:39.928Z,11.97
2023-01-06T22:44:42.913Z,11.93
2023-01-06T22:47:45.883Z,11.80
2023-01-06T22:50:56.724Z,11.80
2023-01-06T22:53:59.904Z,10.33
2023-01-06T22:57:02.837Z,11.07
2023-01-06T23:00:12.309Z,12.13
2023-01-06T23:03:15.355Z,12.23
2023-01-06T23:06:19.891Z,11.20
2023-01-06T23:09:22.847Z,11.53
2023-01-06T23:12:25.836Z,11.93
2023-01-06T23:15:28.806Z,11.97
2023-01-06T23:18:32.892Z,11.63
2023-01-06T23:21:37.226Z,10.13
2023-01-06T23:24:40.189Z,11.17
2023-01-06T23:27:43.171Z,10.70
2023-01-06T23:30:46.155Z,11.37
2023-01-06T23:33:51.231Z,11.63
2023-01-06T23:36:55.529Z,10.80
2023-01-06T23:39:58.539Z,10.23
2023-01-06T23:43:01.452Z,9.80
2023-01-06T23:46:06.266Z,10.53
2023-01-06T23:49:11.836Z,9.73
2023-01-06T23:52:16.104Z,9.83
2023-01-06T23:55:19.022Z,9.20
2023-01-06T23:58:22.177Z,9.93
